createdAt,value
2019-02-11T00:00:43.824Z,23.02
2019-02-11T00:01:49.251Z,22.60
2019-02-11T00:02:54.356Z,24.18
2019-02-11T00:04:00.035Z,22.05
2019-02-11T00:05:05.492Z,23.73
2019-02-11T00:06:10.545Z,23.75
2019-02-11T00:07:15.391Z,24.32
2019-02-11T00:08:20.259Z,23.22
2019-02-11T00:09:25.292Z,24.10
2019-02-11T00:10:30.419Z,24.07
2019-02-11T00:11:37.651Z,24.77
2019-02-11T00:12:46.086Z,23.57
2019-02-11T00:13:55.755Z,23.20
2019-02-11T00:15:00.656Z,23.87
2019-02-11T00:16:05.918Z,23.57
2019-02-11T00:17:10.882Z,24.43
2019-02-11T00:18:15.787Z,22.02
2019-02-11T00:19:20.673Z,24.57
2019-02-11T00:20:25.612Z,24.37
2019-02-11T00:21:30.383Z,24.00
2019-02-11T00:22:35.280Z,24.70
2019-02-11T00:23:40.196Z,24.50
2019-02-11T00:24:45.101Z,24.47
2019-02-11T00:25:50.065Z,24.52
2019-02-11T00:26:54.905Z,24.47
2019-02-11T00:27:59.952Z,24.25
2019-02-11T00:29:05.174Z,23.92
2019-02-11T00:30:10.273Z,24.98
2019-02-11T00:31:15.166Z,24.52
2019-02-11T00:32:20.120Z,23.75
2019-02-11T00:33:24.976Z,25.37
2019-02-11T00:34:30.080Z,25.17
2019-02-11T00:35:35.024Z,24.50
2019-02-11T00:36:39.885Z,23.75
2019-02-11T00:37:44.728Z,24.65
2019-02-11T00:38:49.492Z,24.98
2019-02-11T00:39:54.292Z,25.37
2019-02-11T00:40:59.014Z,27.35
2019-02-11T00:42:03.965Z,25.60
2019-02-11T00:43:08.831Z,26.70
2019-02-11T00:44:13.779Z,26.62
2019-02-11T00:45:18.704Z,25.60
2019-02-11T00:46:23.576Z,26.73
2019-02-11T00:47:28.410Z,25.45
2019-02-11T00:48:33.135Z,25.85
2019-02-11T00:49:37.986Z,26.35
2019-02-11T00:50:42.980Z,25.00
2019-02-11T00:51:47.947Z,25.17
2019-02-11T00:52:52.785Z,25.40
2019-02-11T00:53:57.557Z,25.25
2019-02-11T00:55:06.137Z,26.42
2019-02-11T00:56:11.005Z,27.37
2019-02-11T00:57:15.751Z,27.30
2019-02-11T00:58:20.573Z,25.80
2019-02-11T00:59:25.523Z,25.43
2019-02-11T01:00:30.616Z,24.72
2019-02-11T01:01:35.374Z,25.97
2019-02-11T01:02:40.112Z,27.80
2019-02-11T01:03:44.994Z,26.73
2019-02-11T01:04:49.884Z,27.35
2019-02-11T01:05:54.952Z,26.37
2019-02-11T01:06:59.843Z,26.23
2019-02-11T01:08:04.770Z,27.40
2019-02-11T01:09:09.769Z,26.73
2019-02-11T01:10:14.684Z,27.42
2019-02-11T01:11:19.415Z,26.35
2019-02-11T01:12:24.180Z,25.82
2019-02-11T01:13:29.184Z,27.93
2019-02-11T01:14:34.064Z,27.02
2019-02-11T01:15:39.037Z,28.00
2019-02-11T01:16:43.776Z,27.22
2019-02-11T01:17:48.755Z,26.68
2019-02-11T01:18:53.596Z,26.27
2019-02-11T01:19:58.557Z,26.10
2019-02-11T01:21:03.336Z,25.77
2019-02-11T01:22:08.256Z,25.43
2019-02-11T01:23:13.082Z,26.70
2019-02-11T01:24:17.940Z,25.75
2019-02-11T01:25:22.807Z,26.07
2019-02-11T01:26:27.659Z,26.37
2019-02-11T01:27:32.543Z,24.63
2019-02-11T01:28:37.428Z,25.02
2019-02-11T01:29:42.185Z,24.70
2019-02-11T01:30:47.058Z,23.75
2019-02-11T01:31:51.876Z,25.55
2019-02-11T01:32:56.812Z,24.75
2019-02-11T01:34:01.805Z,25.43
2019-02-11T01:35:07.145Z,25.35
2019-02-11T01:36:11.899Z,25.75
2019-02-11T01:37:16.818Z,25.57
2019-02-11T01:38:21.637Z,25.12
2019-02-11T01:39:26.465Z,25.92
2019-02-11T01:40:31.299Z,25.65
2019-02-11T01:41:36.063Z,26.02
2019-02-11T01:42:41.050Z,26.35
2019-02-11T01:43:45.916Z,24.98
2019-02-11T01:44:50.724Z,24.23
2019-02-11T01:45:58.915Z,24.95
2019-02-11T01:47:03.770Z,24.35
2019-02-11T01:48:08.548Z,26.75
2019-02-11T01:49:13.342Z,25.90
2019-02-11T01:50:18.263Z,23.55
2019-02-11T01:51:23.144Z,24.05
2019-02-11T01:52:27.899Z,24.95
2019-02-11T01:53:32.641Z,25.10
2019-02-11T01:54:37.540Z,26.27
2019-02-11T01:55:42.464Z,23.55
2019-02-11T01:56:47.204Z,24.05
2019-02-11T01:57:52.000Z,24.47
2019-02-11T01:58:57.392Z,25.00
2019-02-11T02:00:02.271Z,24.25
2019-02-11T02:01:07.184Z,25.20
2019-02-11T02:02:12.032Z,23.80
2019-02-11T02:03:16.819Z,24.65
2019-02-11T02:04:21.570Z,24.15
2019-02-11T02:05:26.607Z,24.32
2019-02-11T02:06:31.515Z,23.57
2019-02-11T02:07:36.420Z,24.25
2019-02-11T02:08:41.182Z,23.35
2019-02-11T02:09:46.042Z,23.73
2019-02-11T02:10:51.032Z,23.62
2019-02-11T02:11:56.017Z,24.57
2019-02-11T02:13:00.808Z,21.85
2019-02-11T02:14:05.624Z,25.17
2019-02-11T02:15:11.044Z,23.47
2019-02-11T02:16:15.945Z,23.90
2019-02-11T02:17:20.712Z,23.57
2019-02-11T02:18:25.597Z,22.95
2019-02-11T02:19:30.521Z,23.85
2019-02-11T02:20:35.482Z,23.67
2019-02-11T02:21:40.239Z,23.80
2019-02-11T02:22:45.207Z,23.57
2019-02-11T02:23:50.116Z,23.60
2019-02-11T02:24:55.100Z,24.37
2019-02-11T02:25:59.860Z,24.75
2019-02-11T02:27:04.825Z,23.87
2019-02-11T02:28:09.707Z,22.70
2019-02-11T02:29:14.551Z,22.70
2019-02-11T02:30:19.299Z,22.17
2019-02-11T02:31:24.073Z,23.15
2019-02-11T02:32:28.943Z,23.02
2019-02-11T02:33:33.996Z,24.32
2019-02-11T02:34:38.824Z,23.75
2019-02-11T02:35:43.711Z,22.22
2019-02-11T02:36:48.485Z,22.07
2019-02-11T02:37:53.344Z,22.10
2019-02-11T02:38:58.209Z,23.83
2019-02-11T02:40:03.147Z,22.35
2019-02-11T02:41:07.929Z,22.67
2019-02-11T02:42:12.708Z,23.20
2019-02-11T02:43:17.587Z,23.10
2019-02-11T02:44:22.486Z,23.30
2019-02-11T02:45:27.404Z,22.90
2019-02-11T02:46:32.163Z,23.20
2019-02-11T02:47:37.077Z,22.15
2019-02-11T02:48:41.928Z,22.30
2019-02-11T02:49:46.768Z,21.95
2019-02-11T02:50:51.716Z,22.87
2019-02-11T02:51:56.547Z,21.27
2019-02-11T02:53:01.392Z,22.80
2019-02-11T02:54:06.170Z,21.37
2019-02-11T02:55:11.030Z,20.82
2019-02-11T02:56:16.028Z,21.60
2019-02-11T02:57:21.012Z,21.82
2019-02-11T02:58:36.787Z,21.97
2019-02-11T02:59:51.532Z,22.10
2019-02-11T03:01:06.760Z,20.97
2019-02-11T03:02:18.488Z,21.20
2019-02-11T03:03:23.407Z,21.70
2019-02-11T03:04:28.182Z,21.45
2019-02-11T03:05:33.271Z,20.57
2019-02-11T03:06:38.180Z,21.65
2019-02-11T03:07:43.055Z,21.82
2019-02-11T03:08:47.853Z,21.20
2019-02-11T03:09:52.774Z,21.52
2019-02-11T03:10:57.660Z,20.70
2019-02-11T03:12:02.557Z,22.35
2019-02-11T03:13:07.405Z,20.45
2019-02-11T03:14:12.300Z,21.57
2019-02-11T03:15:17.127Z,21.17
2019-02-11T03:16:22.120Z,21.42
2019-02-11T03:17:27.072Z,21.55
2019-02-11T03:18:31.813Z,21.50
2019-02-11T03:19:36.730Z,20.72
2019-02-11T03:20:41.631Z,21.25
2019-02-11T03:21:46.543Z,21.82
2019-02-11T03:22:51.385Z,20.60
2019-02-11T03:23:56.254Z,21.17
2019-02-11T03:25:01.333Z,21.10
2019-02-11T03:26:06.176Z,22.50
2019-02-11T03:27:10.949Z,20.52
2019-02-11T03:28:16.008Z,19.80
2019-02-11T03:29:21.020Z,20.85
2019-02-11T03:30:25.784Z,20.68
2019-02-11T03:31:30.580Z,21.15
2019-02-11T03:32:35.445Z,20.85
2019-02-11T03:33:40.229Z,20.00
2019-02-11T03:34:45.113Z,21.57
2019-02-11T03:35:49.944Z,20.32
2019-02-11T03:36:54.968Z,21.97
2019-02-11T03:37:59.797Z,20.95
2019-02-11T03:39:05.840Z,20.97
2019-02-11T03:40:10.823Z,20.05
2019-02-11T03:41:15.768Z,21.85
2019-02-11T03:42:20.560Z,21.02
2019-02-11T03:43:25.458Z,20.90
2019-02-11T03:44:30.328Z,20.45
2019-02-11T03:45:35.182Z,22.30
2019-02-11T03:46:39.956Z,22.70
2019-02-11T03:47:44.862Z,23.18
2019-02-11T03:48:49.749Z,22.07
2019-02-11T03:49:54.636Z,22.22
2019-02-11T03:50:59.501Z,22.02
2019-02-11T03:52:04.551Z,21.12
2019-02-11T03:53:09.424Z,20.52
2019-02-11T03:54:14.361Z,20.75
2019-02-11T03:55:19.162Z,20.37
2019-02-11T03:56:24.086Z,20.70
2019-02-11T03:57:28.957Z,19.87
2019-02-11T03:58:33.940Z,22.22
2019-02-11T03:59:38.813Z,21.25
2019-02-11T04:00:43.785Z,20.57
2019-02-11T04:01:48.556Z,20.17
2019-02-11T04:02:53.332Z,20.75
2019-02-11T04:03:58.196Z,19.50
2019-02-11T04:05:03.130Z,20.55
2019-02-11T04:06:08.039Z,20.90
2019-02-11T04:07:12.856Z,19.90
2019-02-11T04:08:17.813Z,19.60
2019-02-11T04:09:22.917Z,19.80
2019-02-11T04:10:27.912Z,19.30
2019-02-11T04:11:32.649Z,19.95
2019-02-11T04:12:37.562Z,20.37
2019-02-11T04:13:42.561Z,18.82
2019-02-11T04:14:47.594Z,20.32
2019-02-11T04:15:52.339Z,20.48
2019-02-11T04:16:57.226Z,19.95
2019-02-11T04:18:02.172Z,19.75
2019-02-11T04:19:07.045Z,20.90
2019-02-11T04:20:12.093Z,20.32
2019-02-11T04:21:17.140Z,20.92
2019-02-11T04:22:22.140Z,20.40
2019-02-11T04:23:26.873Z,21.23
2019-02-11T04:24:31.620Z,20.00
2019-02-11T04:25:36.536Z,20.02
2019-02-11T04:26:41.426Z,19.42
2019-02-11T04:27:46.391Z,20.17
2019-02-11T04:28:51.113Z,20.97
2019-02-11T04:29:55.964Z,18.67
2019-02-11T04:31:00.851Z,20.50
2019-02-11T04:32:05.672Z,20.32
2019-02-11T04:33:10.572Z,20.88
2019-02-11T04:34:15.471Z,21.05
2019-02-11T04:35:20.268Z,20.90
2019-02-11T04:36:26.511Z,20.62
2019-02-11T04:37:31.527Z,20.50
2019-02-11T04:38:36.362Z,20.12
2019-02-11T04:39:41.139Z,21.05
2019-02-11T04:40:46.025Z,20.88
2019-02-11T04:41:50.920Z,20.40
2019-02-11T04:42:55.835Z,21.00
2019-02-11T04:44:00.696Z,19.50
2019-02-11T04:45:06.188Z,21.05
2019-02-11T04:46:11.081Z,21.33
2019-02-11T04:47:16.055Z,20.88
2019-02-11T04:48:20.850Z,20.72
2019-02-11T04:49:25.616Z,19.85
2019-02-11T04:50:30.557Z,21.15
2019-02-11T04:51:35.439Z,19.50
2019-02-11T04:52:40.224Z,20.12
2019-02-11T04:53:44.979Z,19.95
2019-02-11T04:54:50.048Z,19.73
2019-02-11T04:55:54.925Z,20.15
2019-02-11T04:56:59.695Z,19.20
2019-02-11T04:58:05.711Z,19.55
2019-02-11T04:59:10.592Z,18.52
2019-02-11T05:00:15.721Z,19.42
2019-02-11T05:01:20.506Z,19.92
2019-02-11T05:02:25.369Z,18.73
2019-02-11T05:03:30.192Z,19.92
2019-02-11T05:04:38.099Z,19.75
2019-02-11T05:05:42.972Z,18.95
2019-02-11T05:06:47.806Z,18.20
2019-02-11T05:07:52.738Z,18.90
2019-02-11T05:08:57.623Z,18.90
2019-02-11T05:10:02.676Z,19.10
2019-02-11T05:11:07.572Z,18.30
2019-02-11T05:12:12.371Z,20.02
2019-02-11T05:13:17.319Z,18.85
2019-02-11T05:14:22.178Z,17.98
2019-02-11T05:15:27.176Z,19.65
2019-02-11T05:16:31.884Z,17.92
2019-02-11T05:17:36.784Z,18.35
2019-02-11T05:18:41.684Z,17.90
2019-02-11T05:19:46.556Z,18.27
2019-02-11T05:20:51.342Z,17.85
2019-02-11T05:21:56.273Z,17.20
2019-02-11T05:23:01.112Z,17.45
2019-02-11T05:24:06.082Z,18.95
2019-02-11T05:25:11.155Z,17.70
2019-02-11T05:26:15.940Z,17.65
2019-02-11T05:27:20.925Z,18.80
2019-02-11T05:28:26.022Z,17.10
2019-02-11T05:29:31.152Z,17.77
2019-02-11T05:30:36.072Z,18.70
2019-02-11T05:31:41.018Z,17.60
2019-02-11T05:32:45.924Z,17.67
2019-02-11T05:33:50.920Z,18.00
2019-02-11T05:34:55.965Z,16.70
2019-02-11T05:36:00.844Z,16.62
2019-02-11T05:37:05.788Z,15.70
2019-02-11T05:38:10.623Z,17.55
2019-02-11T05:39:15.613Z,17.73
2019-02-11T05:40:20.667Z,15.48
2019-02-11T05:41:25.523Z,16.93
2019-02-11T05:42:30.307Z,15.75
2019-02-11T05:43:35.248Z,16.40
2019-02-11T05:44:40.146Z,16.02
2019-02-11T05:45:45.112Z,15.65
2019-02-11T05:46:49.892Z,14.87
2019-02-11T05:47:54.753Z,15.20
2019-02-11T05:48:59.844Z,14.80
2019-02-11T05:50:05.396Z,14.85
2019-02-11T05:51:10.469Z,16.00
2019-02-11T05:52:15.489Z,15.38
2019-02-11T05:53:20.309Z,15.43
2019-02-11T05:54:25.302Z,14.45
2019-02-11T05:55:30.168Z,15.20
2019-02-11T05:56:35.144Z,15.83
2019-02-11T05:57:39.935Z,14.07
2019-02-11T05:58:45.049Z,14.83
2019-02-11T05:59:50.012Z,15.58
2019-02-11T06:00:54.957Z,16.27
2019-02-11T06:01:59.709Z,14.65
2019-02-11T06:03:04.592Z,15.43
2019-02-11T06:04:09.474Z,14.40
2019-02-11T06:05:14.269Z,14.50
2019-02-11T06:06:19.373Z,14.75
2019-02-11T06:07:24.155Z,15.03
2019-02-11T06:08:29.084Z,14.25
2019-02-11T06:09:34.242Z,14.10
2019-02-11T06:10:39.170Z,15.25
2019-02-11T06:11:44.172Z,14.10
2019-02-11T06:12:49.253Z,13.50
2019-02-11T06:13:54.348Z,13.00
2019-02-11T06:15:04.272Z,13.35
2019-02-11T06:16:05.922Z,12.00
2019-02-11T06:17:10.816Z,11.22
2019-02-11T06:18:15.817Z,11.03
2019-02-11T06:19:20.720Z,10.35
2019-02-11T06:20:25.647Z,11.10
2019-02-11T06:21:30.479Z,11.38
2019-02-11T06:22:35.428Z,11.50
2019-02-11T06:23:40.315Z,11.10
2019-02-11T06:24:45.388Z,9.98
2019-02-11T06:25:50.375Z,10.08
2019-02-11T06:26:55.324Z,10.58
2019-02-11T06:28:00.188Z,10.18
2019-02-11T06:29:05.242Z,10.32
2019-02-11T06:30:11.370Z,10.53
2019-02-11T06:31:16.181Z,10.03
2019-02-11T06:32:20.914Z,9.25
2019-02-11T06:33:25.920Z,9.70
2019-02-11T06:34:30.876Z,9.45
2019-02-11T06:35:36.764Z,9.80
2019-02-11T06:36:41.744Z,9.83
2019-02-11T06:37:46.756Z,9.08
2019-02-11T06:38:51.553Z,9.63
2019-02-11T06:39:56.423Z,9.33
2019-02-11T06:41:01.557Z,9.00
2019-02-11T06:42:06.344Z,8.50
2019-02-11T06:43:11.115Z,8.33
2019-02-11T06:44:16.213Z,8.98
2019-02-11T06:45:21.060Z,8.98
2019-02-11T06:46:26.225Z,9.93
2019-02-11T06:47:31.117Z,9.88
2019-02-11T06:48:36.040Z,9.93
2019-02-11T06:49:41.061Z,11.15
2019-02-11T06:50:45.840Z,11.22
2019-02-11T06:51:50.695Z,12.03
2019-02-11T06:52:55.456Z,12.35
2019-02-11T06:54:00.479Z,12.40
2019-02-11T06:55:06.171Z,11.88
2019-02-11T06:56:11.352Z,11.10
2019-02-11T06:57:16.254Z,10.98
2019-02-11T06:58:21.360Z,9.80
2019-02-11T06:59:26.560Z,9.40
2019-02-11T07:00:31.715Z,8.53
2019-02-11T07:01:37.296Z,8.58
2019-02-11T07:02:42.821Z,8.55
2019-02-11T07:03:47.790Z,8.48
2019-02-11T07:04:52.931Z,9.10
2019-02-11T07:05:57.913Z,8.65
2019-02-11T07:07:02.875Z,7.85
2019-02-11T07:08:08.147Z,8.83
2019-02-11T07:09:13.376Z,7.80
2019-02-11T07:10:18.480Z,9.28
2019-02-11T07:11:23.324Z,7.97
2019-02-11T07:12:28.252Z,8.18
2019-02-11T07:13:33.237Z,8.23
2019-02-11T07:14:38.470Z,7.90
2019-02-11T07:15:43.576Z,8.30
2019-02-11T07:16:48.726Z,7.80
2019-02-11T07:17:56.631Z,7.65
2019-02-11T07:19:01.768Z,8.58
2019-02-11T07:20:07.056Z,7.78
2019-02-11T07:21:13.195Z,8.20
2019-02-11T07:22:18.364Z,8.08
2019-02-11T07:23:23.214Z,7.42
2019-02-11T07:24:28.250Z,8.35
2019-02-11T07:25:33.316Z,7.70
2019-02-11T07:26:38.405Z,8.40
2019-02-11T07:27:43.472Z,7.42
2019-02-11T07:28:48.489Z,7.70
2019-02-11T07:29:53.663Z,7.30
2019-02-11T07:30:58.683Z,7.75
2019-02-11T07:32:03.605Z,7.58
2019-02-11T07:33:08.813Z,7.78
2019-02-11T07:34:13.819Z,7.90
2019-02-11T07:35:18.637Z,6.90
2019-02-11T07:36:23.660Z,7.50
2019-02-11T07:37:28.801Z,7.45
2019-02-11T07:38:33.904Z,6.85
2019-02-11T07:39:38.844Z,7.28
2019-02-11T07:40:43.758Z,6.70
2019-02-11T07:42:06.557Z,6.55
2019-02-11T07:43:45.604Z,7.12
2019-02-11T07:44:56.491Z,6.75
2019-02-11T07:46:32.634Z,6.80
2019-02-11T07:47:37.672Z,6.45
2019-02-11T07:48:42.634Z,6.70
2019-02-11T07:49:47.679Z,6.60
2019-02-11T07:50:52.851Z,6.72
2019-02-11T07:51:58.016Z,6.80
2019-02-11T07:53:02.835Z,6.75
2019-02-11T07:54:07.845Z,6.83
2019-02-11T07:55:12.860Z,7.20
2019-02-11T07:56:18.004Z,6.67
2019-02-11T07:57:22.788Z,6.65
2019-02-11T07:58:27.684Z,6.58
2019-02-11T07:59:32.835Z,6.67
2019-02-11T08:00:38.144Z,6.60
2019-02-11T08:01:42.978Z,7.67
2019-02-11T08:02:47.976Z,6.67
2019-02-11T08:03:53.073Z,6.87
2019-02-11T08:04:58.237Z,7.05
2019-02-11T08:06:03.176Z,7.03
2019-02-11T08:07:08.204Z,7.28
2019-02-11T08:08:13.043Z,6.58
2019-02-11T08:09:18.236Z,6.55
2019-02-11T08:10:23.444Z,6.78
2019-02-11T08:11:28.696Z,6.60
2019-02-11T08:12:33.795Z,7.10
2019-02-11T08:13:38.660Z,6.92
2019-02-11T08:14:43.706Z,7.62
2019-02-11T08:15:49.028Z,7.20
2019-02-11T08:16:53.919Z,6.60
2019-02-11T08:17:58.972Z,6.80
2019-02-11T08:19:04.244Z,5.55
2019-02-11T08:20:09.427Z,4.47
2019-02-11T08:21:14.409Z,4.50
2019-02-11T08:22:19.310Z,5.20
2019-02-11T08:23:24.445Z,5.58
2019-02-11T08:24:29.543Z,5.72
2019-02-11T08:25:34.476Z,4.17
2019-02-11T08:26:39.647Z,3.47
2019-02-11T08:27:44.596Z,3.50
2019-02-11T08:28:49.561Z,3.22
2019-02-11T08:29:54.438Z,3.45
2019-02-11T08:30:59.467Z,3.60
2019-02-11T08:32:04.462Z,2.42
2019-02-11T08:33:09.459Z,3.10
2019-02-11T08:34:14.374Z,2.35
2019-02-11T08:35:20.193Z,4.55
2019-02-11T08:36:25.124Z,4.95
2019-02-11T08:37:30.019Z,3.95
2019-02-11T08:38:34.919Z,4.30
2019-02-11T08:39:40.266Z,2.45
2019-02-11T08:40:45.403Z,2.95
2019-02-11T08:41:50.313Z,2.50
2019-02-11T08:42:55.367Z,2.40
2019-02-11T08:44:00.329Z,2.25
2019-02-11T08:45:06.237Z,2.20
2019-02-11T08:46:13.116Z,2.05
2019-02-11T08:47:19.435Z,4.12
2019-02-11T08:48:24.719Z,11.25
2019-02-11T08:49:30.121Z,4.67
2019-02-11T08:50:35.607Z,4.78
2019-02-11T08:51:40.536Z,4.00
2019-02-11T08:52:45.304Z,2.40
2019-02-11T08:53:50.184Z,3.83
2019-02-11T08:54:55.205Z,2.50
2019-02-11T08:56:00.064Z,2.75
2019-02-11T08:57:04.959Z,3.10
2019-02-11T08:58:09.838Z,2.62
2019-02-11T08:59:14.797Z,2.50
2019-02-11T09:00:19.636Z,2.67
2019-02-11T09:01:24.557Z,3.20
2019-02-11T09:02:29.597Z,2.75
2019-02-11T09:03:34.525Z,3.00
2019-02-11T09:04:39.575Z,4.10
2019-02-11T09:05:44.696Z,2.30
2019-02-11T09:06:49.873Z,2.10
2019-02-11T09:07:54.731Z,2.87
2019-02-11T09:08:59.667Z,2.70
2019-02-11T09:10:04.630Z,2.30
2019-02-11T09:11:10.197Z,2.50
2019-02-11T09:12:15.041Z,2.40
2019-02-11T09:13:20.028Z,3.40
2019-02-11T09:14:24.880Z,4.17
2019-02-11T09:15:29.827Z,5.50
2019-02-11T09:16:34.909Z,3.47
2019-02-11T09:17:39.804Z,3.62
2019-02-11T09:18:44.526Z,2.62
2019-02-11T09:19:49.484Z,2.60
2019-02-11T09:20:54.382Z,3.90
2019-02-11T09:22:07.095Z,4.15
2019-02-11T09:23:05.740Z,12.58
2019-02-11T09:24:10.980Z,6.47
2019-02-11T09:25:16.104Z,4.83
2019-02-11T09:26:21.068Z,3.80
2019-02-11T09:27:25.908Z,1.98
2019-02-11T09:28:30.853Z,1.95
2019-02-11T09:29:35.988Z,2.10
2019-02-11T09:30:41.553Z,3.60
2019-02-11T09:31:47.244Z,6.40
2019-02-11T09:32:52.763Z,6.03
2019-02-11T09:33:58.281Z,2.98
2019-02-11T09:35:03.691Z,5.15
2019-02-11T09:36:09.208Z,2.52
2019-02-11T09:37:14.199Z,3.65
2019-02-11T09:38:19.379Z,6.47
2019-02-11T09:39:25.008Z,2.22
2019-02-11T09:40:29.837Z,4.60
2019-02-11T09:41:34.741Z,3.33
2019-02-11T09:42:39.690Z,2.27
2019-02-11T09:43:44.639Z,1.77
2019-02-11T09:44:49.524Z,2.77
2019-02-11T09:45:54.763Z,2.40
2019-02-11T09:46:59.609Z,2.10
2019-02-11T09:48:04.688Z,5.17
2019-02-11T09:49:09.720Z,2.90
2019-02-11T09:50:36.605Z,3.00
2019-02-11T09:51:44.656Z,2.65
2019-02-11T09:52:50.736Z,2.75
2019-02-11T09:53:56.036Z,3.72
2019-02-11T09:55:00.963Z,2.72
2019-02-11T09:56:05.884Z,3.72
2019-02-11T09:57:10.882Z,3.25
2019-02-11T09:58:15.803Z,4.12
2019-02-11T09:59:20.640Z,2.00
2019-02-11T10:00:25.920Z,2.35
2019-02-11T10:01:30.758Z,2.80
2019-02-11T10:02:35.769Z,2.33
2019-02-11T10:03:40.723Z,2.98
2019-02-11T10:04:45.651Z,2.85
2019-02-11T10:05:50.554Z,2.60
2019-02-11T10:06:55.963Z,2.65
2019-02-11T10:08:01.009Z,2.50
2019-02-11T10:09:06.969Z,2.40
2019-02-11T10:10:15.051Z,2.72
2019-02-11T10:11:20.008Z,2.80
2019-02-11T10:12:25.331Z,2.72
2019-02-11T10:13:30.242Z,2.62
2019-02-11T10:14:35.302Z,2.50
2019-02-11T10:15:40.411Z,2.52
2019-02-11T10:16:45.213Z,2.65
2019-02-11T10:17:50.185Z,2.33
2019-02-11T10:18:55.175Z,2.40
2019-02-11T10:20:00.123Z,2.20
2019-02-11T10:21:05.204Z,2.00
2019-02-11T10:22:10.324Z,2.22
2019-02-11T10:23:15.499Z,2.17
2019-02-11T10:24:20.405Z,2.20
2019-02-11T10:25:26.449Z,2.60
2019-02-11T10:26:32.440Z,2.80
2019-02-11T10:27:37.228Z,2.20
2019-02-11T10:28:42.375Z,2.50
2019-02-11T10:29:47.369Z,2.20
2019-02-11T10:30:52.374Z,2.20
2019-02-11T10:31:57.110Z,2.47
2019-02-11T10:33:01.944Z,2.42
2019-02-11T10:34:06.864Z,2.85
2019-02-11T10:35:12.271Z,2.12
2019-02-11T10:36:18.242Z,2.72
2019-02-11T10:37:23.339Z,2.98
2019-02-11T10:38:36.072Z,3.00
2019-02-11T10:39:34.996Z,2.70
2019-02-11T10:40:39.794Z,3.27
2019-02-11T10:41:44.651Z,3.22
2019-02-11T10:42:49.678Z,3.00
2019-02-11T10:43:54.628Z,3.40
2019-02-11T10:45:00.331Z,3.08
2019-02-11T10:46:05.308Z,4.33
2019-02-11T10:47:10.239Z,3.00
2019-02-11T10:48:15.119Z,3.15
2019-02-11T10:49:20.109Z,3.55
2019-02-11T10:50:24.911Z,3.50
2019-02-11T10:51:29.673Z,3.27
2019-02-11T10:52:34.449Z,3.58
2019-02-11T10:53:39.227Z,3.70
2019-02-11T10:54:44.260Z,3.33
2019-02-11T10:55:49.487Z,3.37
2019-02-11T10:56:54.857Z,3.10
2019-02-11T10:58:00.457Z,3.15
2019-02-11T10:59:06.057Z,4.40
2019-02-11T11:00:17.858Z,3.55
2019-02-11T11:01:23.868Z,3.72
2019-02-11T11:02:30.097Z,3.62
2019-02-11T11:03:35.829Z,3.70
2019-02-11T11:04:41.577Z,4.40
2019-02-11T11:05:47.459Z,4.00
2019-02-11T11:06:53.097Z,4.50
2019-02-11T11:07:58.537Z,4.30
2019-02-11T11:09:04.738Z,4.60
2019-02-11T11:10:14.216Z,4.70
2019-02-11T11:11:19.698Z,4.60
2019-02-11T11:12:25.656Z,4.55
2019-02-11T11:13:30.977Z,5.10
2019-02-11T11:14:35.775Z,5.10
2019-02-11T11:15:40.656Z,5.37
2019-02-11T11:16:45.416Z,6.35
2019-02-11T11:17:50.300Z,5.55
2019-02-11T11:18:55.099Z,5.35
2019-02-11T11:19:59.936Z,4.40
2019-02-11T11:21:06.288Z,5.30
2019-02-11T11:22:11.292Z,4.37
2019-02-11T11:23:16.477Z,4.75
2019-02-11T11:24:21.584Z,3.87
2019-02-11T11:25:26.514Z,5.37
2019-02-11T11:26:31.440Z,5.55
2019-02-11T11:27:36.451Z,3.90
2019-02-11T11:28:41.548Z,5.78
2019-02-11T11:29:47.323Z,9.73
2019-02-11T11:30:52.340Z,7.70
2019-02-11T11:31:57.478Z,8.85
2019-02-11T11:33:02.747Z,4.30
2019-02-11T11:34:07.720Z,4.60
2019-02-11T11:35:13.164Z,4.08
2019-02-11T11:36:18.310Z,2.92
2019-02-11T11:37:23.280Z,2.83
2019-02-11T11:38:28.774Z,2.60
2019-02-11T11:39:33.783Z,2.52
2019-02-11T11:40:38.706Z,2.60
2019-02-11T11:41:43.604Z,3.00
2019-02-11T11:42:48.698Z,2.62
2019-02-11T11:43:54.141Z,2.75
2019-02-11T11:44:59.196Z,2.87
2019-02-11T11:46:04.343Z,2.70
2019-02-11T11:47:09.132Z,3.05
2019-02-11T11:48:13.900Z,3.27
2019-02-11T11:49:18.741Z,5.10
2019-02-11T11:50:23.880Z,3.95
2019-02-11T11:51:28.978Z,4.50
2019-02-11T11:52:34.291Z,3.70
2019-02-11T11:53:39.228Z,3.77
2019-02-11T11:54:44.024Z,3.45
2019-02-11T11:55:48.828Z,3.90
2019-02-11T11:56:54.142Z,3.10
2019-02-11T11:57:59.780Z,3.50
2019-02-11T11:59:05.278Z,3.12
2019-02-11T12:00:25.199Z,2.98
2019-02-11T12:01:30.673Z,2.83
2019-02-11T12:02:36.311Z,6.75
2019-02-11T12:03:41.633Z,8.10
2019-02-11T12:04:46.460Z,3.60
2019-02-11T12:05:51.489Z,3.17
2019-02-11T12:06:56.359Z,3.70
2019-02-11T12:08:01.126Z,4.95
2019-02-11T12:09:06.816Z,3.62
2019-02-11T12:10:11.768Z,4.53
2019-02-11T12:11:16.728Z,3.60
2019-02-11T12:12:21.610Z,3.15
2019-02-11T12:13:27.338Z,3.20
2019-02-11T12:14:32.696Z,4.92
2019-02-11T12:15:38.451Z,4.33
2019-02-11T12:16:55.901Z,3.90
2019-02-11T12:17:50.353Z,4.72
2019-02-11T12:18:55.879Z,3.80
2019-02-11T12:20:00.920Z,5.00
2019-02-11T12:21:05.983Z,4.50
2019-02-11T12:22:12.803Z,3.45
2019-02-11T12:23:17.642Z,3.30
2019-02-11T12:24:22.540Z,4.37
2019-02-11T12:25:27.692Z,3.45
2019-02-11T12:26:32.627Z,3.90
2019-02-11T12:27:37.503Z,4.47
2019-02-11T12:28:42.555Z,3.60
2019-02-11T12:29:47.468Z,4.00
2019-02-11T12:30:53.635Z,5.25
2019-02-11T12:31:58.885Z,4.97
2019-02-11T12:33:03.908Z,4.45
2019-02-11T12:34:09.058Z,4.28
2019-02-11T12:35:14.411Z,4.20
2019-02-11T12:36:19.408Z,4.33
2019-02-11T12:37:24.351Z,5.05
2019-02-11T12:38:29.366Z,4.70
2019-02-11T12:39:34.356Z,4.53
2019-02-11T12:40:39.528Z,4.42
2019-02-11T12:41:44.417Z,4.87
2019-02-11T12:42:52.822Z,5.42
2019-02-11T12:43:56.004Z,4.83
2019-02-11T12:45:01.203Z,4.45
2019-02-11T12:46:06.139Z,5.33
2019-02-11T12:47:14.686Z,4.42
2019-02-11T12:48:17.620Z,4.53
2019-02-11T12:49:22.568Z,3.85
2019-02-11T12:50:27.411Z,3.70
2019-02-11T12:51:32.293Z,4.45
2019-02-11T12:52:37.286Z,5.97
2019-02-11T12:53:42.042Z,4.30
2019-02-11T12:54:46.932Z,4.00
2019-02-11T12:55:52.163Z,4.20
2019-02-11T12:56:57.090Z,5.53
2019-02-11T12:58:01.818Z,5.03
2019-02-11T12:59:06.665Z,4.83
2019-02-11T13:00:17.088Z,4.33
2019-02-11T13:01:20.848Z,4.70
2019-02-11T13:02:25.595Z,4.62
2019-02-11T13:03:30.915Z,4.80
2019-02-11T13:04:35.601Z,4.20
2019-02-11T13:05:45.690Z,4.05
2019-02-11T13:06:46.796Z,4.50
2019-02-11T13:07:51.662Z,4.58
2019-02-11T13:08:56.418Z,5.15
2019-02-11T13:10:01.390Z,4.53
2019-02-11T13:11:06.393Z,5.60
2019-02-11T13:12:11.207Z,4.53
2019-02-11T13:13:15.910Z,4.37
2019-02-11T13:14:20.883Z,4.30
2019-02-11T13:15:57.935Z,4.47
2019-02-11T13:16:34.341Z,4.62
2019-02-11T13:17:39.203Z,4.15
2019-02-11T13:18:44.250Z,3.70
2019-02-11T13:20:06.722Z,3.60
2019-02-11T13:20:55.450Z,3.75
2019-02-11T13:22:00.360Z,3.95
2019-02-11T13:23:05.216Z,4.97
2019-02-11T13:24:10.057Z,4.70
2019-02-11T13:25:15.356Z,3.52
2019-02-11T13:26:20.320Z,3.87
2019-02-11T13:27:25.048Z,3.67
2019-02-11T13:28:29.805Z,3.72
2019-02-11T13:29:34.677Z,3.75
2019-02-11T13:30:39.437Z,4.37
2019-02-11T13:31:44.273Z,4.28
2019-02-11T13:32:49.008Z,2.83
2019-02-11T13:33:53.752Z,3.42
2019-02-11T13:34:58.468Z,3.00
2019-02-11T13:36:03.199Z,4.72
2019-02-11T13:37:07.932Z,4.00
2019-02-11T13:38:12.710Z,3.80
2019-02-11T13:39:17.479Z,3.67
2019-02-11T13:40:22.257Z,3.40
2019-02-11T13:41:27.005Z,2.95
2019-02-11T13:42:31.883Z,3.77
2019-02-11T13:43:36.626Z,3.00
2019-02-11T13:44:41.475Z,3.12
2019-02-11T13:45:46.331Z,3.12
2019-02-11T13:46:51.089Z,3.65
2019-02-11T13:47:58.509Z,3.37
2019-02-11T13:49:02.401Z,4.45
2019-02-11T13:50:07.727Z,4.12
2019-02-11T13:51:12.659Z,4.40
2019-02-11T13:52:17.628Z,5.42
2019-02-11T13:53:22.557Z,3.90
2019-02-11T13:54:27.425Z,5.95
2019-02-11T13:55:32.407Z,3.67
2019-02-11T13:56:37.331Z,9.98
2019-02-11T13:57:42.596Z,8.20
2019-02-11T13:58:51.812Z,6.10
2019-02-11T13:59:54.139Z,8.40
2019-02-11T14:00:59.048Z,6.55
2019-02-11T14:02:04.060Z,4.08
2019-02-11T14:03:09.191Z,7.75
2019-02-11T14:04:14.340Z,3.50
2019-02-11T14:05:19.471Z,4.10
2019-02-11T14:06:24.465Z,4.60
2019-02-11T14:07:29.561Z,3.77
2019-02-11T14:08:34.635Z,3.80
2019-02-11T14:09:40.094Z,4.67
2019-02-11T14:10:45.294Z,4.00
2019-02-11T14:11:50.660Z,3.40
2019-02-11T14:12:56.089Z,3.60
2019-02-11T14:14:03.710Z,4.83
2019-02-11T14:15:08.340Z,3.60
2019-02-11T14:16:13.797Z,4.47